Time;durP1;ratioP1;P1;durP2;ratioP2;P2;SDS_P1;SDS_P2;PMS_P1;PMS_P2;Temp;Humidity;BMP_temperature;BMP_pressure;BME280_temperature;BME280_humidity;BME280_pressure;Samples;Min_cycle;Max_cycle;Signal;HPM_P1;HPM_P2
2022/04/27 00:00:21;;;;;;;12.65;6.75;;;;;;;10.51;55.66;101658.97;4981107;28;20054;-62
2022/04/27 00:02:48;;;;;;;14.98;7.18;;;;;;;10.37;55.66;101672.59;4981654;28;20049;-61
2022/04/27 00:05:16;;;;;;;13.38;7.13;;;;;;;10.36;55.56;101661.84;4980960;28;20054;-61
2022/04/27 00:07:43;;;;;;;11.85;6.82;;;;;;;10.36;55.78;101664.59;4964428;28;20042;-61
2022/04/27 00:10:10;;;;;;;15.10;7.35;;;;;;;10.41;55.61;101664.59;4981499;28;20059;-62
2022/04/27 00:12:38;;;;;;;11.07;6.47;;;;;;;10.46;55.86;101670.84;4971091;28;20066;-61
2022/04/27 00:15:06;;;;;;;15.30;7.15;;;;;;;10.71;54.80;101665.09;4977716;28;20055;-62
2022/04/27 00:17:34;;;;;;;12.38;6.90;;;;;;;10.64;55.31;101666.53;4978437;28;20045;-62
2022/04/27 00:20:01;;;;;;;14.07;7.68;;;;;;;10.59;55.06;101670.19;4978200;28;20051;-62
2022/04/27 00:22:29;;;;;;;14.13;7.47;;;;;;;10.37;55.80;101672.59;4973266;28;20050;-63
2022/04/27 00:25:01;;;;;;;16.00;7.15;;;;;;;10.36;55.96;101670.94;4977540;28;20103;-63
2022/04/27 00:27:28;;;;;;;13.77;6.93;;;;;;;10.31;55.94;101676.50;4966782;28;20043;-61
2022/04/27 00:29:57;;;;;;;15.85;6.65;;;;;;;10.19;56.67;101676.88;4960349;28;20058;-61
2022/04/27 00:32:24;;;;;;;10.00;6.57;;;;;;;10.55;55.65;101665.56;4944916;28;20066;-62
2022/04/27 00:34:52;;;;;;;12.70;7.10;;;;;;;10.84;54.65;101666.34;4978170;28;20050;-62
2022/04/27 00:37:19;;;;;;;15.35;7.07;;;;;;;10.67;55.07;101666.78;4959506;28;20530;-62
2022/04/27 00:39:46;;;;;;;13.10;6.85;;;;;;;10.30;55.92;101672.13;4978199;28;20062;-62
2022/04/27 00:42:15;;;;;;;11.70;7.18;;;;;;;10.60;55.28;101666.31;4977852;28;20051;-61
2022/04/27 00:44:44;;;;;;;15.55;7.30;;;;;;;10.45;55.64;101668.38;4960417;28;20058;-63
2022/04/27 00:47:15;;;;;;;11.60;7.13;;;;;;;10.45;55.64;101671.13;4957352;28;20059;-62
2022/04/27 00:49:47;;;;;;;12.27;6.47;;;;;;;10.55;55.33;101668.31;4974940;28;20491;-63
2022/04/27 00:52:15;;;;;;;15.20;7.53;;;;;;;10.01;56.73;101672.03;4963348;28;20066;-61
2022/04/27 00:54:44;;;;;;;13.07;7.55;;;;;;;9.91;57.14;101669.34;4960596;28;20050;-62
2022/04/27 00:57:12;;;;;;;14.23;8.10;;;;;;;9.62;58.03;101665.69;4955172;28;20074;-62
2022/04/27 00:59:39;;;;;;;12.73;7.78;;;;;;;9.71;57.81;101665.91;4977824;28;20509;-62
2022/04/27 01:02:07;;;;;;;13.50;8.27;;;;;;;9.66;58.11;101668.69;4978585;28;20069;-61
2022/04/27 01:04:36;;;;;;;14.80;7.70;;;;;;;9.76;57.56;101669.44;4960227;28;20062;-61
2022/04/27 01:07:05;;;;;;;11.20;7.45;;;;;;;9.64;57.98;101662.66;4947270;28;20058;-61
2022/04/27 01:09:33;;;;;;;17.45;7.95;;;;;;;9.82;58.05;101659.22;4976084;28;20463;-61
2022/04/27 01:12:02;;;;;;;11.90;7.93;;;;;;;9.41;58.63;101666.06;4938581;28;20055;-62
2022/04/27 01:14:44;;;;;;;15.15;8.77;;;;;;;9.46;59.19;101658.63;4966142;28;20055;-62
2022/04/27 01:17:12;;;;;;;16.38;8.00;;;;;;;9.46;58.61;101660.53;4958276;28;20406;-62
2022/04/27 01:19:39;;;;;;;12.18;7.82;;;;;;;9.53;58.68;101659.13;4967195;28;20051;-62
2022/04/27 01:22:07;;;;;;;12.43;8.05;;;;;;;9.45;58.69;101665.22;4975387;28;20047;-61
2022/04/27 01:24:40;;;;;;;14.02;8.02;;;;;;;9.50;58.68;101659.69;4957836;28;20047;-61
2022/04/27 01:27:08;;;;;;;13.77;8.02;;;;;;;9.47;58.63;101662.19;4960505;28;20058;-61
2022/04/27 01:29:36;;;;;;;13.93;8.32;;;;;;;9.61;58.59;101654.94;4959811;28;20057;-62
2022/04/27 01:32:04;;;;;;;14.20;7.57;;;;;;;9.45;58.78;101656.16;4976835;28;20057;-60
2022/04/27 01:34:32;;;;;;;13.77;8.70;;;;;;;9.46;58.57;101657.78;4959075;28;20063;-61
2022/04/27 01:39:46;;;;;;;15.75;8.50;;;;;;;9.17;59.89;101651.34;4975391;28;20057;-60
2022/04/27 01:42:14;;;;;;;13.63;8.38;;;;;;;9.24;59.71;101649.91;4957987;28;20061;-62
2022/04/27 01:44:41;;;;;;;14.00;8.60;;;;;;;9.33;59.75;101645.47;4975977;28;20055;-61
2022/04/27 01:47:08;;;;;;;13.63;8.75;;;;;;;9.32;59.70;101649.34;4976261;28;20058;-61
2022/04/27 01:49:36;;;;;;;13.98;9.43;;;;;;;9.40;59.25;101647.91;4976881;28;20051;-60
2022/04/27 01:54:49;;;;;;;16.80;9.65;;;;;;;9.47;59.29;101665.75;4953971;28;20158;-62
2022/04/27 01:57:17;;;;;;;14.63;9.52;;;;;;;8.94;60.78;101661.06;4959242;28;20382;-63
2022/04/27 01:59:45;;;;;;;19.58;10.05;;;;;;;9.08;60.69;101656.59;4962016;28;20035;-62
2022/04/27 02:02:13;;;;;;;14.95;9.20;;;;;;;9.16;60.42;101652.44;4959382;28;20055;-62
2022/04/27 02:04:46;;;;;;;15.05;9.38;;;;;;;9.43;59.81;101670.16;4944105;28;20410;-62
2022/04/27 02:07:20;;;;;;;15.65;10.00;;;;;;;9.12;60.41;101670.63;4958968;28;20055;-62
2022/04/27 02:09:48;;;;;;;14.15;9.90;;;;;;;9.34;60.20;101665.56;4959623;28;20047;-63
2022/04/27 02:12:17;;;;;;;14.23;9.50;;;;;;;9.21;60.61;101664.22;4949489;28;20058;-62
2022/04/27 02:14:50;;;;;;;16.50;9.90;;;;;;;9.39;60.21;101662.78;4946192;28;20050;-61
2022/04/27 02:17:19;;;;;;;16.58;10.02;;;;;;;9.15;60.82;101670.88;4943431;28;20054;-61
2022/04/27 02:19:46;;;;;;;16.73;10.45;;;;;;;8.84;61.67;101667.38;4954379;28;20062;-61
2022/04/27 02:22:14;;;;;;;18.00;11.18;;;;;;;8.78;62.33;101670.44;4976139;28;20065;-62
2022/04/27 02:24:42;;;;;;;17.88;11.05;;;;;;;9.12;61.43;101662.38;4959703;28;20070;-61
2022/04/27 02:27:10;;;;;;;16.50;10.52;;;;;;;9.24;60.70;101665.63;4974625;28;20414;-67
2022/04/27 02:29:37;;;;;;;18.08;10.77;;;;;;;8.84;61.82;101663.81;4958800;28;20071;-66
2022/04/27 02:32:15;;;;;;;18.63;10.60;;;;;;;9.08;61.91;101662.09;4954833;28;20055;-67
2022/04/27 02:34:42;;;;;;;20.50;10.95;;;;;;;8.85;62.26;101669.03;4970547;28;20057;-66
2022/04/27 02:37:10;;;;;;;24.25;11.40;;;;;;;9.11;62.10;101661.53;4955063;29;20054;-66
2022/04/27 02:39:41;;;;;;;16.98;11.07;;;;;;;8.86;62.42;101664.34;4947516;29;20451;-66
2022/04/27 02:42:08;;;;;;;17.70;11.32;;;;;;;9.07;62.31;101664.03;4972540;28;20055;-68
2022/04/27 02:44:36;;;;;;;17.70;11.00;;;;;;;9.00;62.38;101659.91;4975115;28;20051;-67
2022/04/27 02:47:04;;;;;;;19.63;12.60;;;;;;;9.09;61.86;101660.97;4957947;28;20059;-67
2022/04/27 02:52:19;;;;;;;20.58;12.45;;;;;;;8.59;63.66;101664.72;4954880;28;20367;-66
2022/04/27 02:55:13;;;;;;;18.58;12.85;;;;;;;8.49;64.51;101659.22;4962765;28;20059;-67
2022/04/27 02:57:40;;;;;;;25.60;12.15;;;;;;;8.65;63.87;101654.50;4975492;28;20042;-68
2022/04/27 03:00:08;;;;;;;19.73;12.00;;;;;;;8.43;65.06;101657.59;4956826;28;20163;-67
2022/04/27 03:02:35;;;;;;;19.95;12.98;;;;;;;8.54;64.52;101650.16;4958222;28;20054;-67
2022/04/27 03:05:05;;;;;;;18.77;11.88;;;;;;;8.86;63.69;101653.34;4974892;28;20047;-69
2022/04/27 03:07:32;;;;;;;22.23;12.82;;;;;;;8.84;63.51;101658.31;4957960;28;20131;-66
2022/04/27 03:10:00;;;;;;;19.08;12.77;;;;;;;8.67;64.01;101647.66;4958571;28;20517;-68
2022/04/27 03:12:27;;;;;;;21.27;12.50;;;;;;;8.61;64.61;101657.00;4970763;28;20051;-67
2022/04/27 03:14:56;;;;;;;18.07;13.10;;;;;;;8.62;64.81;101653.16;4961913;28;20051;-68
2022/04/27 03:17:24;;;;;;;22.17;13.40;;;;;;;8.51;64.72;101648.78;4963624;28;20154;-67
2022/04/27 03:19:56;;;;;;;18.48;13.55;;;;;;;8.35;65.74;101660.88;4961544;28;20046;-67
2022/04/27 03:22:24;;;;;;;23.13;13.48;;;;;;;8.35;65.81;101654.56;4957947;28;20414;-68
2022/04/27 03:24:51;;;;;;;23.20;13.50;;;;;;;8.44;65.84;101647.44;4974811;28;20047;-67
2022/04/27 03:27:24;;;;;;;21.30;13.75;;;;;;;8.33;66.05;101646.63;4966187;28;20522;-66
2022/04/27 03:29:51;;;;;;;20.23;13.63;;;;;;;8.34;66.40;101655.66;4957653;28;20391;-67
2022/04/27 03:32:19;;;;;;;25.90;14.43;;;;;;;8.40;66.23;101646.34;4966000;28;20046;-67
2022/04/27 03:34:59;;;;;;;22.08;13.27;;;;;;;8.55;65.19;101646.28;4970020;28;20513;-67
2022/04/27 03:37:29;;;;;;;24.92;15.02;;;;;;;8.34;66.68;101656.50;4957857;28;20054;-66
2022/04/27 03:39:57;;;;;;;26.90;15.18;;;;;;;8.21;66.78;101646.03;4957961;28;20424;-67
2022/04/27 03:42:24;;;;;;;28.70;15.10;;;;;;;8.33;66.68;101657.59;4974009;28;20066;-67
2022/04/27 03:44:58;;;;;;;24.70;15.00;;;;;;;8.37;66.75;101646.91;4956641;28;20410;-68
2022/04/27 03:47:27;;;;;;;21.27;15.27;;;;;;;8.20;67.25;101657.28;4959716;28;20054;-67
2022/04/27 03:49:59;;;;;;;19.95;15.18;;;;;;;8.41;66.55;101648.78;4945501;28;20055;-67
2022/04/27 03:52:27;;;;;;;24.30;14.68;;;;;;;8.59;66.37;101637.25;4961600;28;20058;-67
2022/04/27 03:54:54;;;;;;;23.55;16.13;;;;;;;8.47;66.73;101649.63;4977291;28;20058;-67
2022/04/27 03:57:21;;;;;;;29.83;16.50;;;;;;;8.48;66.17;101646.59;4958266;29;20070;-68
2022/04/27 03:59:49;;;;;;;28.20;16.55;;;;;;;8.21;67.40;101658.94;4952328;28;20043;-68
2022/04/27 04:02:16;;;;;;;22.77;16.10;;;;;;;8.27;67.39;101655.09;4961142;28;20530;-67
2022/04/27 04:04:44;;;;;;;26.35;16.92;;;;;;;8.52;66.67;101646.88;4960527;28;20284;-67
2022/04/27 04:07:15;;;;;;;22.35;15.95;;;;;;;7.94;68.83;101653.72;4942185;29;20077;-66
2022/04/27 04:09:52;;;;;;;23.92;16.55;;;;;;;8.11;68.23;101657.00;4948805;28;20078;-67
2022/04/27 04:12:19;;;;;;;26.55;16.90;;;;;;;8.08;69.07;101662.22;4966370;28;20668;-67
2022/04/27 04:15:19;;;;;;;27.60;17.95;;;;;;;7.83;69.50;101654.78;4947517;28;20047;-66
2022/04/27 04:18:06;;;;;;;26.52;17.08;;;;;;;7.96;69.80;101665.25;4949471;28;20387;-67
2022/04/27 04:20:39;;;;;;;26.23;17.38;;;;;;;7.86;69.80;101663.28;4961050;28;20049;-67
2022/04/27 04:23:18;;;;;;;31.73;18.45;;;;;;;8.12;69.09;101664.16;4961070;28;20126;-67
2022/04/27 04:29:00;;;;;;;24.52;16.23;;;;;;;8.18;68.87;101664.97;4901942;29;20052;-66
2022/04/27 04:31:29;;;;;;;24.80;17.83;;;;;;;8.16;68.54;101670.72;4902165;29;20055;-69
2022/04/27 04:34:14;;;;;;;26.67;18.77;;;;;;;8.27;68.65;101675.16;4948800;28;20067;-67
2022/04/27 04:36:42;;;;;;;28.50;17.52;;;;;;;7.82;69.80;101672.34;4960972;28;20054;-67
2022/04/27 04:39:10;;;;;;;29.98;18.65;;;;;;;7.98;69.87;101682.25;4972205;28;20047;-61
2022/04/27 04:41:38;;;;;;;35.33;18.67;;;;;;;7.95;69.91;101677.28;4944635;28;20059;-62
2022/04/27 04:44:07;;;;;;;35.35;20.02;;;;;;;8.09;69.55;101672.13;4960833;28;20062;-61
2022/04/27 04:46:58;;;;;;;25.83;17.40;;;;;;;8.17;69.25;101675.13;4958532;28;20062;-61
2022/04/27 04:49:46;;;;;;;30.60;19.33;;;;;;;7.93;69.66;101674.03;4957068;28;20475;-61
2022/04/27 04:52:33;;;;;;;28.52;19.45;;;;;;;8.12;69.64;101679.78;4977710;28;20059;-67
2022/04/27 04:55:27;;;;;;;30.40;19.75;;;;;;;7.97;69.80;101688.81;4957590;28;20070;-68
2022/04/27 04:58:13;;;;;;;33.00;20.27;;;;;;;7.82;70.54;101688.81;4976888;28;20050;-66
2022/04/27 05:01:03;;;;;;;31.90;19.95;;;;;;;7.68;71.32;101694.00;4960519;28;20042;-67
2022/04/27 05:03:53;;;;;;;30.73;19.73;;;;;;;7.90;70.87;101700.06;4959511;28;20091;-68
2022/04/27 05:06:48;;;;;;;31.60;18.90;;;;;;;7.56;71.96;101698.06;4962360;28;20050;-66
2022/04/27 05:09:36;;;;;;;35.97;20.58;;;;;;;7.77;71.73;101703.34;4977124;28;20054;-67
2022/04/27 05:12:21;;;;;;;34.33;21.90;;;;;;;7.88;71.03;101694.03;4962852;28;20063;-67
2022/04/27 05:15:05;;;;;;;30.73;19.75;;;;;;;7.69;71.60;101697.53;4959761;28;20080;-67
2022/04/27 05:17:50;;;;;;;32.10;20.20;;;;;;;7.80;71.51;101705.53;4977254;28;20051;-66
2022/04/27 05:20:40;;;;;;;33.28;21.15;;;;;;;7.61;72.70;101700.81;4951690;28;20078;-67
2022/04/27 05:23:36;;;;;;;28.13;19.40;;;;;;;7.90;71.71;101710.19;4958465;28;20051;-67
2022/04/27 05:26:35;;;;;;;34.08;20.60;;;;;;;7.98;71.24;101704.19;4967946;28;20078;-67
2022/04/27 05:32:19;;;;;;;36.10;21.05;;;;;;;8.09;71.09;101716.81;4976263;28;20057;-67
2022/04/27 05:35:05;;;;;;;31.25;20.75;;;;;;;8.28;70.44;101717.97;4963202;28;20053;-67
2022/04/27 05:37:36;;;;;;;38.30;20.25;;;;;;;8.26;69.95;101722.94;4964399;28;20061;-67
2022/04/27 05:40:28;;;;;;;30.20;20.65;;;;;;;8.22;70.18;101724.53;4971941;28;20490;-68
2022/04/27 05:43:06;;;;;;;32.05;21.75;;;;;;;8.44;69.52;101732.53;4976360;28;20062;-67
2022/04/27 05:45:45;;;;;;;35.40;22.35;;;;;;;8.29;69.60;101730.59;4959416;28;20062;-67
2022/04/27 05:48:36;;;;;;;36.08;21.15;;;;;;;8.29;69.75;101738.84;4970608;28;20047;-67
2022/04/27 05:51:17;;;;;;;33.40;20.88;;;;;;;7.89;71.57;101734.09;4960667;28;20047;-68
2022/04/27 05:54:07;;;;;;;32.80;20.73;;;;;;;7.72;72.34;101746.38;4956558;28;20062;-67
2022/04/27 05:56:57;;;;;;;33.08;21.33;;;;;;;8.06;71.66;101742.06;4958877;28;20069;-67
2022/04/27 05:59:43;;;;;;;36.45;22.48;;;;;;;8.06;70.69;101747.53;4958887;28;20057;-67
2022/04/27 06:02:39;;;;;;;35.35;21.85;;;;;;;7.77;71.72;101743.66;4966398;28;20058;-62
2022/04/27 06:05:16;;;;;;;36.78;21.98;;;;;;;7.86;71.74;101763.97;4942104;28;20526;-63
2022/04/27 06:07:43;;;;;;;34.85;22.27;;;;;;;7.80;72.01;101751.31;4966670;28;20062;-68
2022/04/27 06:10:15;;;;;;;38.22;22.92;;;;;;;7.77;72.42;101754.63;4959000;28;20057;-62
2022/04/27 06:12:47;;;;;;;38.42;23.38;;;;;;;7.84;72.10;101749.69;4961512;28;20050;-68
2022/04/27 06:15:44;;;;;;;39.55;21.73;;;;;;;8.11;71.36;101758.53;4967696;28;20066;-69
2022/04/27 06:18:46;;;;;;;36.45;23.33;;;;;;;8.06;71.11;101764.00;4948285;28;20410;-67
2022/04/27 06:21:15;;;;;;;38.40;23.50;;;;;;;7.79;72.14;101760.66;4964294;28;20063;-69
2022/04/27 06:23:46;;;;;;;34.17;22.15;;;;;;;8.11;71.59;101769.50;4973869;28;20417;-67
2022/04/27 06:26:18;;;;;;;35.92;23.23;;;;;;;7.92;71.70;101774.69;4973811;28;20056;-67
2022/04/27 06:28:45;;;;;;;39.30;23.58;;;;;;;8.05;71.53;101780.75;4974857;28;20055;-67
2022/04/27 06:31:12;;;;;;;35.97;22.45;;;;;;;8.08;71.48;101770.06;4970109;28;20062;-68
2022/04/27 06:33:40;;;;;;;35.03;22.98;;;;;;;8.51;70.57;101775.06;4958105;28;20081;-71
2022/04/27 06:36:08;;;;;;;34.65;22.27;;;;;;;8.87;69.86;101779.44;4958624;28;20047;-67
2022/04/27 06:38:35;;;;;;;37.45;22.35;;;;;;;8.82;69.44;101784.16;4958005;28;20062;-67
2022/04/27 06:41:12;;;;;;;33.80;21.90;;;;;;;8.62;69.94;101778.66;4970080;28;20502;-66
2022/04/27 06:44:00;;;;;;;39.42;22.65;;;;;;;9.28;68.42;101779.38;4947671;28;20063;-67
2022/04/27 06:46:45;;;;;;;36.58;23.02;;;;;;;8.98;67.89;101783.03;4967046;28;20055;-66
2022/04/27 06:49:31;;;;;;;38.03;22.80;;;;;;;8.95;68.50;101789.91;4956312;29;20059;-66
2022/04/27 06:52:31;;;;;;;37.47;23.52;;;;;;;8.72;68.85;101787.72;4932525;29;20059;-67
2022/04/27 06:55:17;;;;;;;36.53;23.88;;;;;;;8.94;68.05;101791.00;4955851;29;20059;-65
2022/04/27 06:58:19;;;;;;;37.63;22.83;;;;;;;8.99;68.91;101790.19;4929009;29;20054;-65
2022/04/27 07:00:58;;;;;;;35.75;23.52;;;;;;;9.06;68.16;101791.56;4947420;29;20054;-67
2022/04/27 07:03:28;;;;;;;31.33;21.95;;;;;;;9.62;67.01;101796.91;4938201;29;20054;-67
2022/04/27 07:05:55;;;;;;;40.05;24.67;;;;;;;9.00;67.13;101802.81;4955728;28;20058;-67
2022/04/27 07:08:22;;;;;;;40.50;24.17;;;;;;;8.80;69.13;101808.31;4934540;28;20059;-65
2022/04/27 07:10:49;;;;;;;37.22;24.38;;;;;;;8.94;69.22;101801.19;4955234;28;20043;-67
2022/04/27 07:13:17;;;;;;;38.00;22.70;;;;;;;9.37;68.38;101795.03;4955858;29;20051;-66
2022/04/27 07:15:50;;;;;;;35.97;21.70;;;;;;;9.76;66.55;101797.94;4953981;28;20043;-68
2022/04/27 07:18:18;;;;;;;34.50;23.23;;;;;;;9.75;66.55;101802.59;4944144;29;20047;-68
2022/04/27 07:20:45;;;;;;;33.80;23.80;;;;;;;9.54;65.98;101797.44;4954080;28;20054;-62
2022/04/27 07:23:12;;;;;;;40.03;24.80;;;;;;;9.65;66.46;101793.56;4958366;28;20051;-61
2022/04/27 07:25:39;;;;;;;39.75;24.38;;;;;;;9.83;65.35;101796.50;4958368;28;20055;-61
2022/04/27 07:28:07;;;;;;;41.53;24.80;;;;;;;9.70;66.05;101802.63;4957963;28;20664;-62
2022/04/27 07:30:34;;;;;;;37.83;24.17;;;;;;;10.10;64.77;101796.97;4958370;28;20054;-61
2022/04/27 07:33:01;;;;;;;40.05;21.75;;;;;;;10.44;63.93;101790.69;4958867;29;20089;-62
2022/04/27 07:35:28;;;;;;;42.63;23.85;;;;;;;10.46;63.24;101802.25;4953740;28;20070;-62
2022/04/27 07:37:55;;;;;;;36.55;24.35;;;;;;;10.23;63.59;101794.69;4954229;29;20423;-61
2022/04/27 07:40:23;;;;;;;34.65;23.95;;;;;;;10.42;63.32;101804.75;4955878;28;20060;-63
2022/04/27 07:42:50;;;;;;;38.28;24.33;;;;;;;10.44;63.49;101801.72;4942749;29;20047;-62
2022/04/27 07:45:18;;;;;;;41.28;24.30;;;;;;;10.23;63.75;101803.78;4958035;28;20058;-62
2022/04/27 07:47:46;;;;;;;43.15;25.33;;;;;;;10.10;64.27;101807.16;4948470;28;20050;-67
2022/04/27 07:50:15;;;;;;;33.33;23.35;;;;;;;10.71;62.93;101802.88;4974371;28;20054;-61
2022/04/27 07:52:43;;;;;;;44.38;25.38;;;;;;;10.62;62.53;101801.00;4977515;28;20061;-68
2022/04/27 07:55:10;;;;;;;36.70;23.77;;;;;;;10.99;62.15;101807.59;4977294;28;20054;-67
2022/04/27 07:57:38;;;;;;;41.55;26.15;;;;;;;10.67;61.93;101806.50;4977578;28;20467;-67
2022/04/27 08:00:08;;;;;;;45.20;25.92;;;;;;;10.90;62.38;101806.56;4969760;28;20081;-61
2022/04/27 08:02:40;;;;;;;39.30;25.80;;;;;;;10.99;61.61;101806.75;4976825;28;20061;-67
2022/04/27 08:05:09;;;;;;;49.78;26.58;;;;;;;10.83;62.10;101814.34;4974916;28;20062;-68
2022/04/27 08:07:38;;;;;;;46.95;24.50;;;;;;;11.20;61.42;101808.22;4961287;28;20062;-67
2022/04/27 08:10:21;;;;;;;37.42;24.83;;;;;;;11.12;60.85;101806.91;4957424;28;20051;-67
2022/04/27 08:12:49;;;;;;;43.60;24.02;;;;;;;11.51;60.58;101811.47;4977723;28;20046;-61
2022/04/27 08:15:19;;;;;;;;;;;;;;;11.58;59.93;101811.94;4944523;28;20050;-62
2022/04/27 08:17:55;;;;;;;35.95;23.88;;;;;;;11.74;59.68;101810.69;4949410;29;19929;-67
2022/04/27 08:23:11;;;;;;;42.35;25.83;;;;;;;11.32;60.60;101811.41;4977717;28;20046;-68
2022/04/27 08:25:46;;;;;;;35.92;22.98;;;;;;;11.53;60.61;101812.00;4980594;28;20074;-67
2022/04/27 08:28:14;;;;;;;42.60;24.80;;;;;;;11.65;59.87;101820.72;4959378;28;20051;-66
2022/04/27 08:30:43;;;;;;;47.67;25.05;;;;;;;11.12;61.46;101820.69;4972308;28;20126;-68
2022/04/27 08:33:11;;;;;;;43.97;25.10;;;;;;;11.52;60.89;101802.94;4954143;28;20058;-66
2022/04/27 08:35:38;;;;;;;37.65;23.77;;;;;;;11.93;59.67;101817.06;4968866;28;20059;-68
2022/04/27 08:38:06;;;;;;;43.15;24.70;;;;;;;11.74;59.57;101817.03;4972517;28;20406;-66
2022/04/27 08:40:35;;;;;;;35.83;23.15;;;;;;;11.94;60.13;101821.50;4976451;28;20058;-66
2022/04/27 08:43:03;;;;;;;39.75;25.02;;;;;;;11.68;60.14;101822.91;4959468;28;20074;-66
2022/04/27 08:45:30;;;;;;;36.67;23.10;;;;;;;11.95;59.78;101815.66;4976901;28;20058;-67
2022/04/27 08:47:59;;;;;;;39.25;24.65;;;;;;;12.05;59.30;101820.22;4976390;28;20066;-66
2022/04/27 08:50:27;;;;;;;41.55;25.17;;;;;;;11.92;59.70;101807.16;4959562;28;20506;-67
2022/04/27 08:52:55;;;;;;;39.33;24.60;;;;;;;11.99;58.95;101821.41;4961579;28;20501;-66
2022/04/27 08:55:23;;;;;;;41.00;25.40;;;;;;;11.65;60.67;101809.69;4977006;28;20047;-67
2022/04/27 08:57:53;;;;;;;42.40;25.73;;;;;;;11.81;59.98;101816.66;4976945;28;20051;-67
2022/04/27 09:00:22;;;;;;;38.13;25.55;;;;;;;12.05;59.33;101809.19;4975861;28;20047;-66
2022/04/27 09:02:53;;;;;;;38.13;25.13;;;;;;;11.86;59.81;101816.59;4964868;28;20047;-67
2022/04/27 09:05:22;;;;;;;36.75;25.30;;;;;;;11.68;60.33;101818.19;4950937;28;20050;-67
2022/04/27 09:07:52;;;;;;;40.13;25.45;;;;;;;11.87;60.38;101821.03;4974705;28;20061;-68
2022/04/27 09:10:22;;;;;;;38.50;25.30;;;;;;;12.26;59.39;101821.59;4976642;28;20063;-67
2022/04/27 09:12:52;;;;;;;38.78;25.48;;;;;;;12.70;58.52;101816.50;4977453;28;20070;-67
2022/04/27 09:15:21;;;;;;;41.50;25.03;;;;;;;12.83;57.13;101810.19;4975162;28;20055;-67
2022/04/27 09:20:48;;;;;;;35.58;24.83;;;;;;;12.63;57.63;101809.72;4966430;28;20059;-69
2022/04/27 09:23:25;;;;;;;37.28;25.08;;;;;;;13.03;57.03;101812.66;4975231;28;20054;-66
2022/04/27 09:25:57;;;;;;;39.35;24.00;;;;;;;12.76;57.88;101814.47;4972700;28;20058;-67
2022/04/27 09:28:33;;;;;;;35.90;22.98;;;;;;;13.04;57.33;101819.03;4975286;28;20065;-66
2022/04/27 09:31:01;;;;;;;40.53;23.13;;;;;;;13.18;57.19;101809.63;4979575;28;20541;-67
2022/04/27 09:33:32;;;;;;;43.78;25.98;;;;;;;12.91;57.03;101817.00;4973535;28;20050;-61
2022/04/27 09:36:00;;;;;;;37.92;25.65;;;;;;;12.60;58.04;101818.59;4974610;28;20062;-62
2022/04/27 09:38:38;;;;;;;34.33;24.67;;;;;;;12.89;58.12;101819.22;4956332;28;20057;-67
2022/04/27 09:41:05;;;;;;;41.78;24.33;;;;;;;13.31;57.18;101811.59;4983047;28;20050;-67
2022/04/27 09:43:45;;;;;;;37.28;25.17;;;;;;;13.28;56.32;101816.91;4958441;28;20069;-60
2022/04/27 09:46:19;;;;;;;39.60;24.83;;;;;;;13.05;57.19;101812.34;4970387;28;20054;-66
2022/04/27 09:48:47;;;;;;;35.50;25.23;;;;;;;13.35;56.63;101812.59;4972444;28;20406;-66
2022/04/27 09:51:15;;;;;;;34.65;24.77;;;;;;;13.51;56.21;101813.16;4975062;28;20055;-66
2022/04/27 09:53:42;;;;;;;38.33;25.70;;;;;;;13.49;55.99;101813.44;4974597;28;20052;-67
2022/04/27 09:56:12;;;;;;;39.60;25.50;;;;;;;13.56;55.76;101813.06;4957349;28;20058;-66
2022/04/27 09:58:43;;;;;;;36.70;24.90;;;;;;;13.64;55.76;101798.50;4975474;28;20065;-66
2022/04/27 10:01:13;;;;;;;33.47;24.85;;;;;;;14.04;55.40;101799.59;4974832;28;20067;-66
2022/04/27 10:03:48;;;;;;;35.60;23.55;;;;;;;13.91;54.80;101797.66;4955797;28;20055;-67
2022/04/27 10:06:16;;;;;;;37.45;24.95;;;;;;;13.85;55.01;101787.81;4972513;28;20062;-66
2022/04/27 10:08:44;;;;;;;36.10;23.10;;;;;;;14.22;54.42;101793.94;4956398;28;20545;-66
2022/04/27 10:11:12;;;;;;;42.28;25.50;;;;;;;14.02;53.58;101791.59;4972165;28;20078;-67
2022/04/27 10:13:40;;;;;;;31.23;24.38;;;;;;;14.02;54.46;101779.69;4970339;28;20047;-69
2022/04/27 10:16:08;;;;;;;30.60;23.73;;;;;;;13.98;54.50;101787.00;4955885;28;20054;-67
2022/04/27 10:18:35;;;;;;;32.35;23.45;;;;;;;14.14;54.46;101774.44;4952009;28;20469;-66
2022/04/27 10:21:04;;;;;;;31.70;23.40;;;;;;;14.41;53.58;101764.13;4969957;28;20050;-68
2022/04/27 10:23:42;;;;;;;43.03;23.48;;;;;;;14.33;53.47;101759.31;4966714;28;20042;-68
2022/04/27 10:26:17;;;;;;;29.52;22.50;;;;;;;14.27;54.01;101768.91;4970765;28;20047;-68
2022/04/27 10:28:48;;;;;;;29.40;22.38;;;;;;;14.47;53.32;101759.28;4968847;28;20046;-73
2022/04/27 10:31:55;;;;;;;31.10;22.45;;;;;;;14.58;52.83;101757.88;4965167;28;20042;-68
2022/04/27 10:34:23;;;;;;;27.52;21.60;;;;;;;14.46;52.83;101760.41;4949567;28;20520;-67
2022/04/27 10:36:55;;;;;;;27.85;20.98;;;;;;;14.53;52.53;101741.38;4956795;28;20051;-65
2022/04/27 10:39:26;;;;;;;33.08;22.63;;;;;;;14.59;52.79;101735.38;4956230;28;20497;-68
2022/04/27 10:42:03;;;;;;;27.60;21.58;;;;;;;14.45;52.95;101750.47;4955532;28;20042;-68
2022/04/27 10:44:50;;;;;;;26.63;21.48;;;;;;;14.40;53.12;101733.97;4935859;28;20062;-67
2022/04/27 10:47:18;;;;;;;27.90;21.13;;;;;;;14.57;53.45;101736.84;4970785;28;20058;-68
2022/04/27 10:49:47;;;;;;;27.88;21.85;;;;;;;14.74;52.55;101739.72;4973075;28;20419;-67
2022/04/27 10:52:15;;;;;;;28.83;20.00;;;;;;;15.03;52.69;101734.50;4972561;28;20059;-67
2022/04/27 10:54:42;;;;;;;30.50;20.10;;;;;;;15.19;52.02;101719.09;4970264;28;20073;-69
2022/04/27 10:57:29;;;;;;;29.13;19.58;;;;;;;14.88;51.10;101745.19;4954016;28;20812;-67
2022/04/27 11:00:02;;;;;;;24.08;17.80;;;;;;;14.95;50.39;101734.47;4955850;28;20059;-68
2022/04/27 11:02:37;;;;;;;22.90;17.50;;;;;;;15.06;50.24;101739.44;4972845;28;20038;-67
2022/04/27 11:05:19;;;;;;;19.83;16.70;;;;;;;15.09;50.19;101733.25;4968685;28;20062;-67
2022/04/27 11:08:00;;;;;;;22.90;16.95;;;;;;;15.51;49.79;101727.09;4957681;28;20434;-67
2022/04/27 11:10:28;;;;;;;24.75;17.33;;;;;;;15.59;49.61;101726.28;4948549;28;20050;-67
2022/04/27 11:12:56;;;;;;;20.63;16.10;;;;;;;15.52;49.43;101714.84;4942095;28;20074;-68
2022/04/27 11:15:25;;;;;;;23.65;17.00;;;;;;;15.51;48.91;101716.00;4972784;28;20286;-67
2022/04/27 11:18:01;;;;;;;21.55;17.38;;;;;;;15.63;49.67;101716.19;4956316;28;20046;-67
2022/04/27 11:20:36;;;;;;;24.10;17.55;;;;;;;15.52;49.26;101723.16;4972030;28;20058;-67
2022/04/27 11:23:07;;;;;;;21.00;15.48;;;;;;;15.36;48.68;101715.59;4969233;28;20410;-68
2022/04/27 11:25:37;;;;;;;19.58;14.40;;;;;;;15.45;48.19;101722.81;4974095;28;20061;-68
2022/04/27 11:28:08;;;;;;;17.75;13.18;;;;;;;15.28;47.63;101717.19;4972332;28;20089;-68
2022/04/27 11:30:35;;;;;;;17.15;11.88;;;;;;;15.62;47.43;101714.53;4972791;28;20061;-68
2022/04/27 11:33:03;;;;;;;17.80;13.68;;;;;;;15.63;47.12;101712.59;4952959;28;20043;-68
2022/04/27 11:35:47;;;;;;;18.02;13.85;;;;;;;15.35;47.71;101711.16;4971168;28;20637;-67
2022/04/27 11:38:21;;;;;;;20.65;14.65;;;;;;;15.54;47.51;101720.88;4971997;28;20066;-68
2022/04/27 11:40:49;;;;;;;19.75;12.65;;;;;;;15.60;47.02;101714.03;4960357;28;20055;-69
2022/04/27 11:43:24;;;;;;;22.58;13.27;;;;;;;15.66;46.59;101701.63;4972976;28;20039;-69
2022/04/27 11:45:52;;;;;;;18.40;12.32;;;;;;;15.53;46.65;101705.34;4956042;28;20054;-68
2022/04/27 11:48:22;;;;;;;15.50;11.95;;;;;;;15.53;46.35;101705.34;4973293;28;20057;-64
2022/04/27 11:50:50;;;;;;;16.40;12.02;;;;;;;15.70;45.76;101705.41;4967465;28;20047;-63
2022/04/27 11:53:17;;;;;;;16.88;11.55;;;;;;;15.83;45.77;101700.84;4949839;28;20039;-62
2022/04/27 11:55:50;;;;;;;21.40;12.60;;;;;;;16.11;45.79;101701.38;4971771;28;20600;-68
2022/04/27 11:58:24;;;;;;;21.20;13.75;;;;;;;16.11;45.85;101695.81;4966868;28;20055;-63